sensor_id;sensor_type;location;lat;lon;timestamp;temperature;humidity
53653;DHT22;39553;52.954;5.932;2023-02-14T00:01:36;3.50;99.90
53653;DHT22;39553;52.954;5.932;2023-02-14T00:04:03;4.40;99.90
53653;DHT22;39553;52.954;5.932;2023-02-14T00:06:33;2.50;99.90
53653;DHT22;39553;52.954;5.932;2023-02-14T00:09:04;1.90;99.90
53653;DHT22;39553;52.954;5.932;2023-02-14T00:11:30;4.40;99.90
53653;DHT22;39553;52.954;5.932;2023-02-14T00:13:56;4.60;99.90
53653;DHT22;39553;52.954;5.932;2023-02-14T00:16:41;2.40;99.90
53653;DHT22;39553;52.954;5.932;2023-02-14T00:19:07;2.60;99.90
53653;DHT22;39553;52.954;5.932;2023-02-14T00:21:37;3.00;99.90
53653;DHT22;39553;52.954;5.932;2023-02-14T00:24:05;4.20;99.90
53653;DHT22;39553;52.954;5.932;2023-02-14T00:26:31;3.10;99.90
53653;DHT22;39553;52.954;5.932;2023-02-14T00:28:57;3.40;99.90
53653;DHT22;39553;52.954;5.932;2023-02-14T00:31:23;2.30;99.90
53653;DHT22;39553;52.954;5.932;2023-02-14T00:33:48;2.50;99.90
53653;DHT22;39553;52.954;5.932;2023-02-14T00:36:16;2.80;99.90
53653;DHT22;39553;52.954;5.932;2023-02-14T00:38:44;2.50;99.90
53653;DHT22;39553;52.954;5.932;2023-02-14T00:41:10;2.80;99.90
53653;DHT22;39553;52.954;5.932;2023-02-14T00:43:48;2.40;99.90
53653;DHT22;39553;52.954;5.932;2023-02-14T00:46:14;2.50;99.90
53653;DHT22;39553;52.954;5.932;2023-02-14T00:48:40;2.00;99.90
53653;DHT22;39553;52.954;5.932;2023-02-14T00:51:06;2.00;99.90
53653;DHT22;39553;52.954;5.932;2023-02-14T00:53:32;2.00;99.90
53653;DHT22;39553;52.954;5.932;2023-02-14T00:55:58;2.60;99.90
53653;DHT22;39553;52.954;5.932;2023-02-14T00:58:24;4.40;99.90
53653;DHT22;39553;52.954;5.932;2023-02-14T01:00:49;4.10;99.90
53653;DHT22;39553;52.954;5.932;2023-02-14T01:03:16;2.50;99.90
53653;DHT22;39553;52.954;5.932;2023-02-14T01:05:41;2.00;99.90
53653;DHT22;39553;52.954;5.932;2023-02-14T01:08:07;3.70;99.90
53653;DHT22;39553;52.954;5.932;2023-02-14T01:10:35;2.40;99.90
53653;DHT22;39553;52.954;5.932;2023-02-14T01:13:01;2.40;99.90
53653;DHT22;39553;52.954;5.932;2023-02-14T01:15:27;1.70;99.90
53653;DHT22;39553;52.954;5.932;2023-02-14T01:17:53;1.80;99.90
53653;DHT22;39553;52.954;5.932;2023-02-14T01:20:19;3.10;99.90
53653;DHT22;39553;52.954;5.932;2023-02-14T01:22:45;2.10;99.90
53653;DHT22;39553;52.954;5.932;2023-02-14T01:25:10;1.80;99.90
53653;DHT22;39553;52.954;5.932;2023-02-14T01:27:36;3.20;99.90
53653;DHT22;39553;52.954;5.932;2023-02-14T01:30:02;4.00;99.90
53653;DHT22;39553;52.954;5.932;2023-02-14T01:32:32;2.10;99.90
53653;DHT22;39553;52.954;5.932;2023-02-14T01:34:58;1.80;99.90
53653;DHT22;39553;52.954;5.932;2023-02-14T01:37:24;2.70;99.90
53653;DHT22;39553;52.954;5.932;2023-02-14T01:39:50;1.80;99.90
53653;DHT22;39553;52.954;5.932;2023-02-14T01:42:16;1.70;99.90
53653;DHT22;39553;52.954;5.932;2023-02-14T01:44:59;3.30;99.90
53653;DHT22;39553;52.954;5.932;2023-02-14T01:47:27;1.90;99.90
53653;DHT22;39553;52.954;5.932;2023-02-14T01:50:02;1.90;99.90
53653;DHT22;39553;52.954;5.932;2023-02-14T01:52:36;1.80;99.90
53653;DHT22;39553;52.954;5.932;2023-02-14T01:55:09;1.80;99.90
53653;DHT22;39553;52.954;5.932;2023-02-14T01:57:39;3.20;99.90
53653;DHT22;39553;52.954;5.932;2023-02-14T02:00:08;3.10;99.90
53653;DHT22;39553;52.954;5.932;2023-02-14T02:02:54;2.00;99.90
53653;DHT22;39553;52.954;5.932;2023-02-14T02:05:20;2.10;99.90
53653;DHT22;39553;52.954;5.932;2023-02-14T02:07:52;2.10;99.90
53653;DHT22;39553;52.954;5.932;2023-02-14T02:10:19;2.70;99.90
53653;DHT22;39553;52.954;5.932;2023-02-14T02:12:47;2.10;99.90
53653;DHT22;39553;52.954;5.932;2023-02-14T02:15:13;2.70;99.90
53653;DHT22;39553;52.954;5.932;2023-02-14T02:23:45;2.10;99.90
53653;DHT22;39553;52.954;5.932;2023-02-14T02:29:39;2.00;99.90
53653;DHT22;39553;52.954;5.932;2023-02-14T02:38:02;2.00;99.90
53653;DHT22;39553;52.954;5.932;2023-02-14T02:40:43;3.20;99.90
53653;DHT22;39553;52.954;5.932;2023-02-14T02:46:20;2.10;99.90
53653;DHT22;39553;52.954;5.932;2023-02-14T02:58:49;2.30;99.90
53653;DHT22;39553;52.954;5.932;2023-02-14T03:01:21;2.30;99.90
53653;DHT22;39553;52.954;5.932;2023-02-14T03:03:50;2.20;99.90
53653;DHT22;39553;52.954;5.932;2023-02-14T03:06:37;3.10;99.90
53653;DHT22;39553;52.954;5.932;2023-02-14T03:12:27;2.10;99.90
53653;DHT22;39553;52.954;5.932;2023-02-14T03:20:16;4.60;99.90
53653;DHT22;39553;52.954;5.932;2023-02-14T03:31:10;2.00;99.90
53653;DHT22;39553;52.954;5.932;2023-02-14T03:33:55;3.20;99.90
53653;DHT22;39553;52.954;5.932;2023-02-14T03:36:30;2.10;99.90
53653;DHT22;39553;52.954;5.932;2023-02-14T03:41:48;2.10;99.90
53653;DHT22;39553;52.954;5.932;2023-02-14T03:44:18;4.10;99.90
53653;DHT22;39553;52.954;5.932;2023-02-14T03:46:50;2.10;99.90
53653;DHT22;39553;52.954;5.932;2023-02-14T03:49:20;2.10;99.90
53653;DHT22;39553;52.954;5.932;2023-02-14T03:51:50;2.10;99.90
53653;DHT22;39553;52.954;5.932;2023-02-14T03:54:18;2.00;99.90
53653;DHT22;39553;52.954;5.932;2023-02-14T03:56:48;2.50;99.90
53653;DHT22;39553;52.954;5.932;2023-02-14T03:59:23;4.00;99.90
53653;DHT22;39553;52.954;5.932;2023-02-14T04:02:01;1.80;99.90
53653;DHT22;39553;52.954;5.932;2023-02-14T04:04:30;1.70;99.90
53653;DHT22;39553;52.954;5.932;2023-02-14T04:06:57;1.70;99.90
53653;DHT22;39553;52.954;5.932;2023-02-14T04:09:23;3.30;99.90
53653;DHT22;39553;52.954;5.932;2023-02-14T04:11:48;1.60;99.90
53653;DHT22;39553;52.954;5.932;2023-02-14T04:14:15;1.60;99.90
53653;DHT22;39553;52.954;5.932;2023-02-14T04:16:42;2.20;99.90
53653;DHT22;39553;52.954;5.932;2023-02-14T04:19:26;1.60;99.90
53653;DHT22;39553;52.954;5.932;2023-02-14T04:21:52;0.30;99.90
53653;DHT22;39553;52.954;5.932;2023-02-14T04:24:18;2.30;99.90
53653;DHT22;39553;52.954;5.932;2023-02-14T04:26:44;2.40;99.90
53653;DHT22;39553;52.954;5.932;2023-02-14T04:29:21;2.80;99.90
53653;DHT22;39553;52.954;5.932;2023-02-14T04:31:47;2.40;99.90
53653;DHT22;39553;52.954;5.932;2023-02-14T04:34:14;1.50;99.90
53653;DHT22;39553;52.954;5.932;2023-02-14T04:36:40;2.20;99.90
53653;DHT22;39553;52.954;5.932;2023-02-14T04:39:05;1.50;99.90
53653;DHT22;39553;52.954;5.932;2023-02-14T04:41:35;2.70;99.90
53653;DHT22;39553;52.954;5.932;2023-02-14T04:44:01;1.20;99.90
53653;DHT22;39553;52.954;5.932;2023-02-14T04:46:27;3.30;99.90
53653;DHT22;39553;52.954;5.932;2023-02-14T04:48:52;1.20;99.90
53653;DHT22;39553;52.954;5.932;2023-02-14T04:51:18;1.20;99.90
53653;DHT22;39553;52.954;5.932;2023-02-14T04:53:44;1.00;99.90
53653;DHT22;39553;52.954;5.932;2023-02-14T04:56:09;1.00;99.90
53653;DHT22;39553;52.954;5.932;2023-02-14T04:58:35;2.90;99.90
53653;DHT22;39553;52.954;5.932;2023-02-14T05:01:01;1.60;99.90
53653;DHT22;39553;52.954;5.932;2023-02-14T05:03:27;1.50;99.90
53653;DHT22;39553;52.954;5.932;2023-02-14T05:05:52;1.30;99.90
53653;DHT22;39553;52.954;5.932;2023-02-14T05:08:18;0.50;99.90
53653;DHT22;39553;52.954;5.932;2023-02-14T05:10:44;1.00;99.90
53653;DHT22;39553;52.954;5.932;2023-02-14T05:13:09;2.20;99.90
53653;DHT22;39553;52.954;5.932;2023-02-14T05:15:35;2.10;99.90
53653;DHT22;39553;52.954;5.932;2023-02-14T05:18:01;3.20;99.90
53653;DHT22;39553;52.954;5.932;2023-02-14T05:20:28;0.80;99.90
53653;DHT22;39553;52.954;5.932;2023-02-14T05:22:53;0.80;99.90
53653;DHT22;39553;52.954;5.932;2023-02-14T05:25:19;1.10;99.90
53653;DHT22;39553;52.954;5.932;2023-02-14T05:27:45;3.10;99.90
53653;DHT22;39553;52.954;5.932;2023-02-14T05:30:11;1.40;99.90
53653;DHT22;39553;52.954;5.932;2023-02-14T05:32:37;1.10;99.90
53653;DHT22;39553;52.954;5.932;2023-02-14T05:35:03;3.30;99.90
53653;DHT22;39553;52.954;5.932;2023-02-14T05:37:29;1.10;99.90
53653;DHT22;39553;52.954;5.932;2023-02-14T05:39:58;1.70;99.90
53653;DHT22;39553;52.954;5.932;2023-02-14T05:42:23;1.20;99.90
53653;DHT22;39553;52.954;5.932;2023-02-14T05:44:49;1.80;99.90
53653;DHT22;39553;52.954;5.932;2023-02-14T05:47:15;3.10;99.90
53653;DHT22;39553;52.954;5.932;2023-02-14T05:49:40;2.40;99.90
53653;DHT22;39553;52.954;5.932;2023-02-14T05:52:06;1.50;99.90
53653;DHT22;39553;52.954;5.932;2023-02-14T05:54:32;1.70;99.90
53653;DHT22;39553;52.954;5.932;2023-02-14T05:56:57;2.90;99.90
53653;DHT22;39553;52.954;5.932;2023-02-14T05:59:23;1.40;99.90
53653;DHT22;39553;52.954;5.932;2023-02-14T06:01:49;1.00;99.90
53653;DHT22;39553;52.954;5.932;2023-02-14T06:04:15;1.00;99.90
53653;DHT22;39553;52.954;5.932;2023-02-14T06:06:40;3.40;99.90
53653;DHT22;39553;52.954;5.932;2023-02-14T06:09:06;1.70;99.90
53653;DHT22;39553;52.954;5.932;2023-02-14T06:11:32;1.00;99.90
53653;DHT22;39553;52.954;5.932;2023-02-14T06:13:57;1.90;99.90
53653;DHT22;39553;52.954;5.932;2023-02-14T06:16:23;3.10;99.90
53653;DHT22;39553;52.954;5.932;2023-02-14T06:18:49;0.90;99.90
53653;DHT22;39553;52.954;5.932;2023-02-14T06:21:15;2.30;99.90
53653;DHT22;39553;52.954;5.932;2023-02-14T06:23:40;1.10;99.90
53653;DHT22;39553;52.954;5.932;2023-02-14T06:26:06;1.70;99.90
53653;DHT22;39553;52.954;5.932;2023-02-14T06:28:32;3.20;99.90
53653;DHT22;39553;52.954;5.932;2023-02-14T06:30:59;0.40;99.90
53653;DHT22;39553;52.954;5.932;2023-02-14T06:33:25;1.60;99.90
53653;DHT22;39553;52.954;5.932;2023-02-14T06:35:52;1.00;99.90
53653;DHT22;39553;52.954;5.932;2023-02-14T06:38:18;1.50;99.90
53653;DHT22;39553;52.954;5.932;2023-02-14T06:40:44;1.50;99.90
53653;DHT22;39553;52.954;5.932;2023-02-14T06:43:10;1.00;99.90
53653;DHT22;39553;52.954;5.932;2023-02-14T06:45:36;1.00;99.90
53653;DHT22;39553;52.954;5.932;2023-02-14T06:48:02;0.90;99.90
53653;DHT22;39553;52.954;5.932;2023-02-14T06:50:28;0.90;99.90
53653;DHT22;39553;52.954;5.932;2023-02-14T06:52:54;0.90;99.90
53653;DHT22;39553;52.954;5.932;2023-02-14T06:55:20;0.90;99.90
53653;DHT22;39553;52.954;5.932;2023-02-14T06:57:45;2.20;99.90
53653;DHT22;39553;52.954;5.932;2023-02-14T07:00:11;0.80;99.90
53653;DHT22;39553;52.954;5.932;2023-02-14T07:02:39;0.80;99.90
53653;DHT22;39553;52.954;5.932;2023-02-14T07:05:05;1.00;99.90
53653;DHT22;39553;52.954;5.932;2023-02-14T07:07:30;1.80;99.90
53653;DHT22;39553;52.954;5.932;2023-02-14T07:09:56;2.20;99.90
53653;DHT22;39553;52.954;5.932;2023-02-14T07:12:22;3.10;99.90
53653;DHT22;39553;52.954;5.932;2023-02-14T07:14:48;0.80;99.90
53653;DHT22;39553;52.954;5.932;2023-02-14T07:17:13;0.90;99.90
53653;DHT22;39553;52.954;5.932;2023-02-14T07:19:39;0.80;99.90
53653;DHT22;39553;52.954;5.932;2023-02-14T07:22:05;0.90;99.90
53653;DHT22;39553;52.954;5.932;2023-02-14T07:24:30;1.00;99.90
53653;DHT22;39553;52.954;5.932;2023-02-14T07:26:56;1.70;99.90
53653;DHT22;39553;52.954;5.932;2023-02-14T07:29:22;0.90;99.90
53653;DHT22;39553;52.954;5.932;2023-02-14T07:31:48;1.00;99.90
53653;DHT22;39553;52.954;5.932;2023-02-14T07:34:13;1.20;99.90
53653;DHT22;39553;52.954;5.932;2023-02-14T07:36:39;0.90;99.90
53653;DHT22;39553;52.954;5.932;2023-02-14T07:39:05;2.50;99.90
53653;DHT22;39553;52.954;5.932;2023-02-14T07:41:31;2.60;99.90
53653;DHT22;39553;52.954;5.932;2023-02-14T07:43:57;1.20;99.90
53653;DHT22;39553;52.954;5.932;2023-02-14T07:46:22;1.30;99.90
53653;DHT22;39553;52.954;5.932;2023-02-14T07:48:48;1.70;99.90
53653;DHT22;39553;52.954;5.932;2023-02-14T07:51:16;1.30;99.90
53653;DHT22;39553;52.954;5.932;2023-02-14T07:53:43;1.40;99.90
53653;DHT22;39553;52.954;5.932;2023-02-14T07:56:08;1.50;99.90
53653;DHT22;39553;52.954;5.932;2023-02-14T07:58:34;1.70;99.90
53653;DHT22;39553;52.954;5.932;2023-02-14T08:01:00;1.40;99.90
53653;DHT22;39553;52.954;5.932;2023-02-14T08:03:26;3.30;99.90
53653;DHT22;39553;52.954;5.932;2023-02-14T08:05:51;1.60;99.90
53653;DHT22;39553;52.954;5.932;2023-02-14T08:08:29;2.60;99.90
53653;DHT22;39553;52.954;5.932;2023-02-14T08:10:55;0.80;99.90
53653;DHT22;39553;52.954;5.932;2023-02-14T08:13:21;2.40;99.90
53653;DHT22;39553;52.954;5.932;2023-02-14T08:15:47;2.10;99.90
53653;DHT22;39553;52.954;5.932;2023-02-14T08:18:35;4.30;99.90
53653;DHT22;39553;52.954;5.932;2023-02-14T08:21:01;4.10;99.90
53653;DHT22;39553;52.954;5.932;2023-02-14T08:23:27;3.30;99.90
53653;DHT22;39553;52.954;5.932;2023-02-14T08:25:54;2.10;99.90
53653;DHT22;39553;52.954;5.932;2023-02-14T08:28:19;3.90;99.90
53653;DHT22;39553;52.954;5.932;2023-02-14T08:30:45;4.40;99.90
53653;DHT22;39553;52.954;5.932;2023-02-14T08:33:11;3.20;99.90
53653;DHT22;39553;52.954;5.932;2023-02-14T08:35:37;2.30;99.90
53653;DHT22;39553;52.954;5.932;2023-02-14T08:38:03;2.50;99.90
53653;DHT22;39553;52.954;5.932;2023-02-14T08:40:29;3.00;99.90
53653;DHT22;39553;52.954;5.932;2023-02-14T08:42:55;2.60;99.90
53653;DHT22;39553;52.954;5.932;2023-02-14T08:45:21;4.80;99.90
53653;DHT22;39553;52.954;5.932;2023-02-14T08:47:47;3.70;99.90
53653;DHT22;39553;52.954;5.932;2023-02-14T08:50:17;2.80;99.90
53653;DHT22;39553;52.954;5.932;2023-02-14T08:52:43;2.90;99.90
53653;DHT22;39553;52.954;5.932;2023-02-14T08:55:10;3.70;99.90
53653;DHT22;39553;52.954;5.932;2023-02-14T08:57:36;3.10;99.90
53653;DHT22;39553;52.954;5.932;2023-02-14T09:00:04;3.30;99.90
53653;DHT22;39553;52.954;5.932;2023-02-14T09:02:29;3.20;99.90
53653;DHT22;39553;52.954;5.932;2023-02-14T09:04:55;3.30;99.90
53653;DHT22;39553;52.954;5.932;2023-02-14T09:07:21;3.30;99.90
53653;DHT22;39553;52.954;5.932;2023-02-14T09:09:47;3.60;99.90
53653;DHT22;39553;52.954;5.932;2023-02-14T09:12:12;4.10;99.90
53653;DHT22;39553;52.954;5.932;2023-02-14T09:14:41;6.10;99.90
53653;DHT22;39553;52.954;5.932;2023-02-14T09:17:09;5.40;99.90
53653;DHT22;39553;52.954;5.932;2023-02-14T09:19:36;6.10;99.90
53653;DHT22;39553;52.954;5.932;2023-02-14T09:22:04;7.50;99.90
53653;DHT22;39553;52.954;5.932;2023-02-14T09:24:31;7.00;99.90
53653;DHT22;39553;52.954;5.932;2023-02-14T09:26:57;6.20;99.90
53653;DHT22;39553;52.954;5.932;2023-02-14T09:29:23;7.90;99.90
53653;DHT22;39553;52.954;5.932;2023-02-14T09:31:57;8.20;99.90
53653;DHT22;39553;52.954;5.932;2023-02-14T09:34:24;8.70;99.90
53653;DHT22;39553;52.954;5.932;2023-02-14T09:36:50;8.70;99.90
53653;DHT22;39553;52.954;5.932;2023-02-14T09:39:16;9.60;99.90
53653;DHT22;39553;52.954;5.932;2023-02-14T09:46:50;10.50;99.90
53653;DHT22;39553;52.954;5.932;2023-02-14T09:49:20;10.80;99.90
53653;DHT22;39553;52.954;5.932;2023-02-14T09:51:50;11.20;99.90
53653;DHT22;39553;52.954;5.932;2023-02-14T09:54:26;11.40;99.90
53653;DHT22;39553;52.954;5.932;2023-02-14T09:56:56;11.60;99.90
53653;DHT22;39553;52.954;5.932;2023-02-14T10:07:30;11.90;99.90
53653;DHT22;39553;52.954;5.932;2023-02-14T10:10:06;11.80;99.90
53653;DHT22;39553;52.954;5.932;2023-02-14T10:15:48;12.60;99.90
53653;DHT22;39553;52.954;5.932;2023-02-14T10:18:27;12.80;99.90
53653;DHT22;39553;52.954;5.932;2023-02-14T10:20:58;13.00;99.90
53653;DHT22;39553;52.954;5.932;2023-02-14T10:23:36;13.20;99.90
53653;DHT22;39553;52.954;5.932;2023-02-14T10:26:15;13.40;99.90
53653;DHT22;39553;52.954;5.932;2023-02-14T10:28:48;13.60;99.90
53653;DHT22;39553;52.954;5.932;2023-02-14T10:33:54;13.80;99.90
53653;DHT22;39553;52.954;5.932;2023-02-14T10:41:55;12.80;99.90
53653;DHT22;39553;52.954;5.932;2023-02-14T10:44:41;12.00;99.90
53653;DHT22;39553;52.954;5.932;2023-02-14T10:53:07;10.80;99.90
53653;DHT22;39553;52.954;5.932;2023-02-14T10:56:20;11.00;99.90
53653;DHT22;39553;52.954;5.932;2023-02-14T10:58:48;10.80;99.90
53653;DHT22;39553;52.954;5.932;2023-02-14T11:01:17;10.60;99.90
53653;DHT22;39553;52.954;5.932;2023-02-14T11:03:57;10.50;99.90
53653;DHT22;39553;52.954;5.932;2023-02-14T11:06:36;10.30;99.90
53653;DHT22;39553;52.954;5.932;2023-02-14T11:09:01;10.20;99.90
53653;DHT22;39553;52.954;5.932;2023-02-14T11:11:54;10.80;99.90
53653;DHT22;39553;52.954;5.932;2023-02-14T11:14:31;10.70;99.90
53653;DHT22;39553;52.954;5.932;2023-02-14T11:16:58;10.90;99.90
53653;DHT22;39553;52.954;5.932;2023-02-14T11:21:54;10.10;99.90
53653;DHT22;39553;52.954;5.932;2023-02-14T11:27:03;10.30;99.90
53653;DHT22;39553;52.954;5.932;2023-02-14T11:32:14;10.20;99.90
53653;DHT22;39553;52.954;5.932;2023-02-14T11:34:44;10.10;99.90
53653;DHT22;39553;52.954;5.932;2023-02-14T11:39:46;10.10;99.90
53653;DHT22;39553;52.954;5.932;2023-02-14T11:42:12;10.10;99.90
53653;DHT22;39553;52.954;5.932;2023-02-14T11:44:53;9.90;99.90
53653;DHT22;39553;52.954;5.932;2023-02-14T11:47:29;9.80;99.90
53653;DHT22;39553;52.954;5.932;2023-02-14T11:50:04;9.80;99.90
53653;DHT22;39553;52.954;5.932;2023-02-14T11:52:44;10.00;99.90
53653;DHT22;39553;52.954;5.932;2023-02-14T11:55:23;10.00;99.90
53653;DHT22;39553;52.954;5.932;2023-02-14T11:57:50;10.50;99.90
53653;DHT22;39553;52.954;5.932;2023-02-14T12:00:18;10.70;99.90
53653;DHT22;39553;52.954;5.932;2023-02-14T12:02:47;10.60;99.90
53653;DHT22;39553;52.954;5.932;2023-02-14T12:07:47;10.60;99.90
53653;DHT22;39553;52.954;5.932;2023-02-14T12:13:00;11.20;99.90
53653;DHT22;39553;52.954;5.932;2023-02-14T12:15:37;11.50;99.90
53653;DHT22;39553;52.954;5.932;2023-02-14T12:18:31;11.30;99.90
53653;DHT22;39553;52.954;5.932;2023-02-14T12:21:24;11.30;99.90
53653;DHT22;39553;52.954;5.932;2023-02-14T12:29:37;13.00;99.90
53653;DHT22;39553;52.954;5.932;2023-02-14T12:32:25;13.40;99.90
53653;DHT22;39553;52.954;5.932;2023-02-14T12:34:55;13.50;99.90
53653;DHT22;39553;52.954;5.932;2023-02-14T12:46:18;13.20;99.90
53653;DHT22;39553;52.954;5.932;2023-02-14T12:51:15;13.30;99.90
53653;DHT22;39553;52.954;5.932;2023-02-14T12:59:56;12.40;99.90
53653;DHT22;39553;52.954;5.932;2023-02-14T13:02:55;12.20;99.90
53653;DHT22;39553;52.954;5.932;2023-02-14T13:05:48;12.30;99.90
53653;DHT22;39553;52.954;5.932;2023-02-14T13:08:31;12.10;99.90
53653;DHT22;39553;52.954;5.932;2023-02-14T13:11:27;12.10;99.90
53653;DHT22;39553;52.954;5.932;2023-02-14T13:19:46;12.10;99.90
53653;DHT22;39553;52.954;5.932;2023-02-14T13:22:21;12.10;99.90
53653;DHT22;39553;52.954;5.932;2023-02-14T13:24:55;11.90;99.90
53653;DHT22;39553;52.954;5.932;2023-02-14T13:27:25;11.80;99.90
53653;DHT22;39553;52.954;5.932;2023-02-14T13:30:00;11.70;99.90
53653;DHT22;39553;52.954;5.932;2023-02-14T13:32:34;11.90;99.90
53653;DHT22;39553;52.954;5.932;2023-02-14T13:35:03;12.70;99.90
53653;DHT22;39553;52.954;5.932;2023-02-14T13:37:31;13.40;99.90
53653;DHT22;39553;52.954;5.932;2023-02-14T13:40:14;13.40;99.90
53653;DHT22;39553;52.954;5.932;2023-02-14T13:43:00;13.30;99.90
53653;DHT22;39553;52.954;5.932;2023-02-14T13:48:10;13.20;99.90
53653;DHT22;39553;52.954;5.932;2023-02-14T13:50:39;13.10;99.90
53653;DHT22;39553;52.954;5.932;2023-02-14T13:53:11;13.30;99.90
53653;DHT22;39553;52.954;5.932;2023-02-14T13:55:43;13.70;99.90
53653;DHT22;39553;52.954;5.932;2023-02-14T13:58:18;13.90;99.90
53653;DHT22;39553;52.954;5.932;2023-02-14T14:00:47;13.90;99.90
53653;DHT22;39553;52.954;5.932;2023-02-14T14:06:13;14.00;99.90
53653;DHT22;39553;52.954;5.932;2023-02-14T14:08:44;13.80;99.90
53653;DHT22;39553;52.954;5.932;2023-02-14T14:14:09;13.10;99.90
53653;DHT22;39553;52.954;5.932;2023-02-14T14:16:58;13.60;99.90
53653;DHT22;39553;52.954;5.932;2023-02-14T14:22:08;14.30;99.90
53653;DHT22;39553;52.954;5.932;2023-02-14T14:24:37;14.70;99.90
53653;DHT22;39553;52.954;5.932;2023-02-14T14:27:20;14.90;99.90
53653;DHT22;39553;52.954;5.932;2023-02-14T14:29:52;15.10;99.90
53653;DHT22;39553;52.954;5.932;2023-02-14T14:32:36;15.20;99.90
53653;DHT22;39553;52.954;5.932;2023-02-14T14:35:14;15.10;99.90
53653;DHT22;39553;52.954;5.932;2023-02-14T14:37:50;15.10;99.90
53653;DHT22;39553;52.954;5.932;2023-02-14T14:42:50;14.50;99.90
53653;DHT22;39553;52.954;5.932;2023-02-14T14:45:29;14.40;99.90
53653;DHT22;39553;52.954;5.932;2023-02-14T14:48:01;14.10;99.90
53653;DHT22;39553;52.954;5.932;2023-02-14T14:50:30;13.90;99.90
53653;DHT22;39553;52.954;5.932;2023-02-14T14:53:02;13.70;99.90
53653;DHT22;39553;52.954;5.932;2023-02-14T14:55:35;13.60;99.90
53653;DHT22;39553;52.954;5.932;2023-02-14T14:58:03;13.40;99.90
53653;DHT22;39553;52.954;5.932;2023-02-14T15:00:35;13.10;99.90
53653;DHT22;39553;52.954;5.932;2023-02-14T15:05:41;12.40;99.90
53653;DHT22;39553;52.954;5.932;2023-02-14T15:11:13;11.80;99.90
53653;DHT22;39553;52.954;5.932;2023-02-14T15:14:03;11.60;99.90
53653;DHT22;39553;52.954;5.932;2023-02-14T15:16:36;11.40;99.90
53653;DHT22;39553;52.954;5.932;2023-02-14T15:19:08;11.20;99.90
53653;DHT22;39553;52.954;5.932;2023-02-14T15:21:34;11.10;99.90
53653;DHT22;39553;52.954;5.932;2023-02-14T15:24:02;11.00;99.90
53653;DHT22;39553;52.954;5.932;2023-02-14T15:26:33;10.90;99.90
53653;DHT22;39553;52.954;5.932;2023-02-14T15:29:04;10.80;99.90
53653;DHT22;39553;52.954;5.932;2023-02-14T15:31:34;10.70;99.90
53653;DHT22;39553;52.954;5.932;2023-02-14T15:34:02;10.60;99.90
53653;DHT22;39553;52.954;5.932;2023-02-14T15:36:30;10.60;99.90
53653;DHT22;39553;52.954;5.932;2023-02-14T15:38:58;10.50;99.90
53653;DHT22;39553;52.954;5.932;2023-02-14T15:41:25;10.40;99.90
53653;DHT22;39553;52.954;5.932;2023-02-14T15:43:53;10.40;99.90
53653;DHT22;39553;52.954;5.932;2023-02-14T15:48:49;10.30;99.90
53653;DHT22;39553;52.954;5.932;2023-02-14T15:51:20;10.30;99.90
53653;DHT22;39553;52.954;5.932;2023-02-14T15:56:30;10.20;99.90
53653;DHT22;39553;52.954;5.932;2023-02-14T15:59:06;10.10;99.90
53653;DHT22;39553;52.954;5.932;2023-02-14T16:01:37;10.00;99.90
53653;DHT22;39553;52.954;5.932;2023-02-14T16:04:05;10.00;99.90
53653;DHT22;39553;52.954;5.932;2023-02-14T16:06:36;10.00;99.90
53653;DHT22;39553;52.954;5.932;2023-02-14T16:09:06;9.90;99.90
53653;DHT22;39553;52.954;5.932;2023-02-14T16:11:34;9.90;99.90
53653;DHT22;39553;52.954;5.932;2023-02-14T16:14:32;9.90;99.90
53653;DHT22;39553;52.954;5.932;2023-02-14T16:17:32;9.80;99.90
53653;DHT22;39553;52.954;5.932;2023-02-14T16:19:58;9.80;99.90
53653;DHT22;39553;52.954;5.932;2023-02-14T16:22:27;10.50;99.90
53653;DHT22;39553;52.954;5.932;2023-02-14T16:25:00;9.50;99.90
53653;DHT22;39553;52.954;5.932;2023-02-14T16:27:26;9.30;99.90
53653;DHT22;39553;52.954;5.932;2023-02-14T16:29:51;9.20;99.90
53653;DHT22;39553;52.954;5.932;2023-02-14T16:32:22;9.00;99.90
53653;DHT22;39553;52.954;5.932;2023-02-14T16:34:48;8.90;99.90
53653;DHT22;39553;52.954;5.932;2023-02-14T16:37:25;8.70;99.90
53653;DHT22;39553;52.954;5.932;2023-02-14T16:39:53;8.60;99.90
53653;DHT22;39553;52.954;5.932;2023-02-14T16:42:22;8.50;99.90
53653;DHT22;39553;52.954;5.932;2023-02-14T16:44:48;8.30;99.90
53653;DHT22;39553;52.954;5.932;2023-02-14T16:47:16;8.20;99.90
53653;DHT22;39553;52.954;5.932;2023-02-14T16:49:43;8.10;99.90
53653;DHT22;39553;52.954;5.932;2023-02-14T16:52:14;6.60;99.90
53653;DHT22;39553;52.954;5.932;2023-02-14T16:54:41;7.80;99.90
53653;DHT22;39553;52.954;5.932;2023-02-14T16:57:50;7.70;99.90
53653;DHT22;39553;52.954;5.932;2023-02-14T16:59:57;7.60;99.90
53653;DHT22;39553;52.954;5.932;2023-02-14T17:02:23;8.70;99.90
53653;DHT22;39553;52.954;5.932;2023-02-14T17:04:53;8.00;99.90
53653;DHT22;39553;52.954;5.932;2023-02-14T17:07:20;7.70;99.90
53653;DHT22;39553;52.954;5.932;2023-02-14T17:09:50;7.60;99.90
53653;DHT22;39553;52.954;5.932;2023-02-14T17:12:21;6.90;99.90
53653;DHT22;39553;52.954;5.932;2023-02-14T17:14:51;7.00;99.90
53653;DHT22;39553;52.954;5.932;2023-02-14T17:17:18;7.50;99.90
53653;DHT22;39553;52.954;5.932;2023-02-14T17:19:44;7.50;99.90
53653;DHT22;39553;52.954;5.932;2023-02-14T17:22:11;6.40;99.90
53653;DHT22;39553;52.954;5.932;2023-02-14T17:24:38;6.30;99.90
53653;DHT22;39553;52.954;5.932;2023-02-14T17:27:04;6.60;99.90
53653;DHT22;39553;52.954;5.932;2023-02-14T17:29:32;6.60;99.90
53653;DHT22;39553;52.954;5.932;2023-02-14T17:31:58;5.90;99.90
53653;DHT22;39553;52.954;5.932;2023-02-14T17:34:23;5.90;99.90
53653;DHT22;39553;52.954;5.932;2023-02-14T17:36:49;5.80;99.90
53653;DHT22;39553;52.954;5.932;2023-02-14T17:39:17;5.70;99.90
53653;DHT22;39553;52.954;5.932;2023-02-14T17:41:43;6.80;99.90
53653;DHT22;39553;52.954;5.932;2023-02-14T17:44:09;6.20;99.90
53653;DHT22;39553;52.954;5.932;2023-02-14T17:46:35;5.50;99.90
53653;DHT22;39553;52.954;5.932;2023-02-14T17:49:01;5.30;99.90
53653;DHT22;39553;52.954;5.932;2023-02-14T17:51:27;4.30;99.90
53653;DHT22;39553;52.954;5.932;2023-02-14T17:53:54;5.70;99.90
53653;DHT22;39553;52.954;5.932;2023-02-14T17:56:24;5.20;99.90
53653;DHT22;39553;52.954;5.932;2023-02-14T17:58:51;5.10;99.90
53653;DHT22;39553;52.954;5.932;2023-02-14T18:01:23;5.20;99.90
53653;DHT22;39553;52.954;5.932;2023-02-14T18:03:49;4.10;99.90
53653;DHT22;39553;52.954;5.932;2023-02-14T18:06:16;5.00;99.90
53653;DHT22;39553;52.954;5.932;2023-02-14T18:08:46;5.00;99.90
53653;DHT22;39553;52.954;5.932;2023-02-14T18:11:19;4.90;99.90
53653;DHT22;39553;52.954;5.932;2023-02-14T18:13:45;6.00;99.90
53653;DHT22;39553;52.954;5.932;2023-02-14T18:16:13;4.80;99.90
53653;DHT22;39553;52.954;5.932;2023-02-14T18:18:39;5.30;99.90
53653;DHT22;39553;52.954;5.932;2023-02-14T18:21:08;5.00;99.90
53653;DHT22;39553;52.954;5.932;2023-02-14T18:23:34;5.00;99.90
53653;DHT22;39553;52.954;5.932;2023-02-14T18:26:02;5.00;99.90